Time;durP1;ratioP1;P1;durP2;ratioP2;P2;SDS_P1;SDS_P2;PMS_P1;PMS_P2;Temp;Humidity;BMP_temperature;BMP_pressure;BME280_temperature;BME280_humidity;BME280_pressure;Samples;Min_cycle;Max_cycle;Signal;HPM_P1;HPM_P2
2021/06/25 00:00:48;;;;;;;5.00;1.00;;;23.40;96.70;;;;;;5024036;28;20049;-75
2021/06/25 00:03:17;;;;;;;4.95;1.02;;;23.30;96.70;;;;;;5018101;28;20088;-74
2021/06/25 00:05:45;;;;;;;4.13;0.82;;;23.30;96.70;;;;;;5019331;28;20541;-74
2021/06/25 00:08:14;;;;;;;5.05;0.80;;;23.40;96.70;;;;;;5018848;28;20065;-74
2021/06/25 00:10:45;;;;;;;3.42;0.82;;;23.40;96.70;;;;;;5025772;28;20081;-74
2021/06/25 00:13:13;;;;;;;3.30;0.80;;;23.30;96.70;;;;;;5022744;28;20526;-74
2021/06/25 00:15:42;;;;;;;2.42;0.98;;;23.40;96.70;;;;;;5006760;28;20384;-74
2021/06/25 00:18:11;;;;;;;4.57;1.13;;;23.40;96.70;;;;;;5024344;28;20053;-74
2021/06/25 00:20:39;;;;;;;2.60;0.95;;;23.30;96.70;;;;;;5020885;28;20048;-74
2021/06/25 00:23:08;;;;;;;7.00;1.73;;;23.30;96.70;;;;;;5021519;28;20045;-74
2021/06/25 00:25:37;;;;;;;4.20;1.02;;;23.30;96.70;;;;;;5023457;28;20045;-74
2021/06/25 00:28:07;;;;;;;3.50;0.70;;;23.30;96.70;;;;;;5022447;28;20069;-76
2021/06/25 00:30:35;;;;;;;3.33;0.80;;;23.30;96.70;;;;;;5022487;28;20249;-74
2021/06/25 00:33:04;;;;;;;4.28;0.82;;;23.30;96.70;;;;;;5025144;28;20375;-74
2021/06/25 00:35:33;;;;;;;3.95;0.80;;;23.30;96.70;;;;;;5022440;28;20047;-74
2021/06/25 00:38:01;;;;;;;2.50;0.70;;;23.40;96.70;;;;;;5017869;28;20123;-74
2021/06/25 00:40:30;;;;;;;7.32;1.27;;;23.40;96.70;;;;;;5025211;28;20345;-74
2021/06/25 00:42:59;;;;;;;2.58;0.80;;;23.30;96.70;;;;;;5018306;28;20041;-74
2021/06/25 00:45:30;;;;;;;5.60;1.17;;;23.20;96.70;;;;;;5027825;28;20077;-74
2021/06/25 00:47:59;;;;;;;4.70;0.95;;;23.10;96.70;;;;;;5025321;28;20045;-74
2021/06/25 00:50:31;;;;;;;2.58;0.70;;;23.10;96.70;;;;;;5020070;28;20037;-74
2021/06/25 00:53:01;;;;;;;2.53;0.60;;;23.10;96.70;;;;;;5021347;28;20575;-74
2021/06/25 00:55:41;;;;;;;2.60;0.63;;;23.10;96.70;;;;;;5021785;28;20128;-74
2021/06/25 00:58:11;;;;;;;4.95;1.13;;;23.00;96.70;;;;;;5034873;28;20073;-74
2021/06/25 01:00:42;;;;;;;5.20;0.80;;;23.00;96.70;;;;;;5018095;28;20152;-74
2021/06/25 01:03:10;;;;;;;2.88;0.70;;;23.00;96.70;;;;;;5023460;28;20033;-74
2021/06/25 01:05:40;;;;;;;9.77;1.20;;;22.90;96.70;;;;;;5020019;28;20415;-74
2021/06/25 01:08:10;;;;;;;4.57;1.17;;;22.90;96.70;;;;;;5003213;28;20519;-75
2021/06/25 01:10:40;;;;;;;4.90;1.13;;;23.00;96.70;;;;;;5033532;28;20103;-74
2021/06/25 01:13:10;;;;;;;3.17;1.05;;;22.90;96.70;;;;;;5017455;28;20444;-74
2021/06/25 01:15:40;;;;;;;3.47;0.98;;;23.00;96.70;;;;;;5018823;28;20064;-74
2021/06/25 01:18:09;;;;;;;7.35;1.40;;;22.90;96.70;;;;;;5025267;28;20038;-74
2021/06/25 01:20:38;;;;;;;6.13;1.00;;;22.80;96.70;;;;;;5029233;28;20045;-74
2021/06/25 01:23:08;;;;;;;4.78;0.88;;;22.80;96.70;;;;;;5021409;28;20490;-74
2021/06/25 01:25:38;;;;;;;3.05;0.70;;;22.80;96.70;;;;;;5020828;28;20046;-74
2021/06/25 01:28:08;;;;;;;2.97;0.68;;;22.90;96.70;;;;;;5021667;28;20173;-74
2021/06/25 01:30:38;;;;;;;3.80;1.42;;;23.00;96.70;;;;;;5022428;28;20049;-74
2021/06/25 01:33:09;;;;;;;4.28;0.90;;;23.00;96.70;;;;;;5024022;28;20046;-73
2021/06/25 01:35:38;;;;;;;2.78;0.60;;;23.00;96.70;;;;;;5025252;28;20525;-75
2021/06/25 01:38:09;;;;;;;3.08;0.70;;;22.90;96.70;;;;;;5019887;28;20044;-75
2021/06/25 01:40:39;;;;;;;3.83;1.20;;;22.80;96.70;;;;;;5002161;28;20041;-75
2021/06/25 01:43:08;;;;;;;3.28;0.68;;;22.70;96.70;;;;;;5024555;28;20037;-75
2021/06/25 01:45:38;;;;;;;4.53;0.90;;;22.70;96.70;;;;;;5019656;28;20057;-75
2021/06/25 01:48:08;;;;;;;2.92;0.95;;;22.70;96.70;;;;;;5021248;28;20064;-75
2021/06/25 01:50:43;;;;;;;3.00;0.73;;;22.60;96.70;;;;;;5024866;28;20060;-74
2021/06/25 01:53:15;;;;;;;2.03;0.80;;;22.60;96.70;;;;;;5021703;28;20046;-74
2021/06/25 01:55:45;;;;;;;3.75;0.98;;;22.50;96.70;;;;;;5017364;28;20120;-74
2021/06/25 01:58:17;;;;;;;3.90;0.80;;;22.60;96.70;;;;;;5016054;28;20057;-74
2021/06/25 02:00:50;;;;;;;2.80;0.70;;;22.60;96.70;;;;;;5020937;28;20053;-74
2021/06/25 02:03:19;;;;;;;2.30;0.95;;;22.40;96.70;;;;;;5015611;28;20056;-73
2021/06/25 02:05:47;;;;;;;3.42;0.70;;;22.40;96.70;;;;;;5021077;28;20076;-73
2021/06/25 02:08:18;;;;;;;4.63;0.95;;;22.40;96.70;;;;;;5022136;28;20060;-73
2021/06/25 02:10:46;;;;;;;2.55;0.90;;;22.50;96.70;;;;;;5017707;28;20164;-73
2021/06/25 02:13:15;;;;;;;3.60;0.88;;;22.60;96.70;;;;;;5026006;28;20044;-72
2021/06/25 02:15:43;;;;;;;2.58;0.85;;;22.60;96.70;;;;;;5022397;28;20133;-73
2021/06/25 02:18:12;;;;;;;2.25;0.95;;;22.30;96.70;;;;;;5018498;28;20120;-72
2021/06/25 02:20:40;;;;;;;6.13;0.80;;;22.20;96.70;;;;;;5018234;28;20045;-75
2021/06/25 02:23:09;;;;;;;2.60;0.70;;;22.10;96.70;;;;;;5019730;28;20065;-73
2021/06/25 02:25:39;;;;;;;4.20;0.80;;;22.10;96.70;;;;;;5017311;28;20048;-73
2021/06/25 02:28:08;;;;;;;2.92;0.90;;;22.10;96.70;;;;;;5016212;28;20123;-73
2021/06/25 02:30:36;;;;;;;3.95;0.90;;;22.10;96.70;;;;;;5014563;28;20038;-73
2021/06/25 02:33:05;;;;;;;4.68;1.10;;;22.00;96.70;;;;;;5014136;28;20046;-74
2021/06/25 02:35:33;;;;;;;2.40;0.80;;;22.10;96.70;;;;;;5023114;28;20426;-74
2021/06/25 02:38:02;;;;;;;4.30;1.00;;;22.10;96.70;;;;;;5020581;28;20052;-74
2021/06/25 02:40:31;;;;;;;4.57;0.80;;;22.20;96.70;;;;;;5021934;28;20037;-74
2021/06/25 02:43:02;;;;;;;3.35;0.90;;;22.20;96.70;;;;;;5023915;28;20045;-73
2021/06/25 02:45:31;;;;;;;3.63;1.10;;;22.20;96.70;;;;;;5031659;28;20602;-73
2021/06/25 02:47:59;;;;;;;2.92;0.65;;;22.10;96.70;;;;;;5023518;28;20041;-74
2021/06/25 02:50:28;;;;;;;4.25;0.70;;;22.00;96.70;;;;;;5023662;28;20766;-73
2021/06/25 02:52:58;;;;;;;3.33;1.38;;;21.90;96.70;;;;;;5003908;28;20042;-73
2021/06/25 02:55:26;;;;;;;3.13;0.80;;;21.90;96.70;;;;;;5023319;28;20061;-73
2021/06/25 02:57:55;;;;;;;3.83;0.70;;;21.80;96.70;;;;;;5030353;28;20502;-73
2021/06/25 03:00:25;;;;;;;3.35;0.70;;;21.60;96.70;;;;;;5023420;28;20054;-73
2021/06/25 03:02:54;;;;;;;1.38;0.70;;;21.50;96.70;;;;;;5021565;28;20045;-73
2021/06/25 03:05:23;;;;;;;4.80;1.08;;;21.50;96.70;;;;;;5025452;28;20037;-73
2021/06/25 03:07:51;;;;;;;3.42;1.10;;;21.60;96.70;;;;;;5026305;28;20041;-73
2021/06/25 03:10:20;;;;;;;4.20;1.10;;;21.60;96.70;;;;;;5021487;28;20431;-73
2021/06/25 03:12:48;;;;;;;3.03;0.57;;;21.50;96.70;;;;;;5019815;28;21554;-74
2021/06/25 03:15:17;;;;;;;2.67;0.85;;;21.60;96.70;;;;;;5021203;28;20104;-74
2021/06/25 03:17:47;;;;;;;2.72;0.93;;;21.70;96.70;;;;;;5020066;28;20116;-73
2021/06/25 03:20:16;;;;;;;3.70;0.90;;;21.60;96.70;;;;;;5020057;28;20069;-74
2021/06/25 03:22:45;;;;;;;3.50;0.90;;;21.70;96.70;;;;;;5025239;28;20044;-74
2021/06/25 03:25:13;;;;;;;5.35;0.90;;;21.70;96.70;;;;;;5026277;28;20518;-74
2021/06/25 03:27:42;;;;;;;2.72;0.88;;;21.60;96.70;;;;;;5019120;28;20045;-74
2021/06/25 03:30:12;;;;;;;3.50;0.80;;;21.70;96.70;;;;;;5006979;28;20418;-75
2021/06/25 03:32:41;;;;;;;4.70;0.73;;;21.70;96.70;;;;;;5021290;28;20126;-75
2021/06/25 03:35:12;;;;;;;4.60;0.80;;;21.70;96.70;;;;;;5021116;28;20072;-75
2021/06/25 03:37:40;;;;;;;2.75;0.75;;;21.70;96.70;;;;;;5022184;28;20033;-75
2021/06/25 03:40:12;;;;;;;3.63;0.80;;;21.80;96.70;;;;;;5008817;28;20049;-75
2021/06/25 03:42:41;;;;;;;5.80;1.30;;;21.80;96.70;;;;;;5020645;28;20096;-75
2021/06/25 03:45:12;;;;;;;3.35;0.95;;;21.70;96.70;;;;;;5019906;28;20076;-75
2021/06/25 03:47:42;;;;;;;7.47;1.30;;;21.70;96.70;;;;;;5018552;28;20041;-75
2021/06/25 03:50:12;;;;;;;1.00;0.60;;;21.60;96.70;;;;;;5028953;28;20025;-75
2021/06/25 03:52:41;;;;;;;2.13;0.75;;;21.60;96.70;;;;;;5021431;28;20773;-75
2021/06/25 03:55:11;;;;;;;2.72;0.88;;;21.60;96.70;;;;;;5021592;28;20057;-75
2021/06/25 03:57:43;;;;;;;3.97;0.90;;;21.50;96.70;;;;;;5023505;28;20061;-75
2021/06/25 04:00:15;;;;;;;6.30;1.20;;;21.40;96.70;;;;;;5019145;28;20150;-75
2021/06/25 04:02:43;;;;;;;2.67;0.90;;;21.20;96.70;;;;;;5018707;28;20049;-75
2021/06/25 04:05:15;;;;;;;5.30;1.13;;;21.20;96.70;;;;;;5022957;28;22065;-75
2021/06/25 04:07:44;;;;;;;2.90;1.10;;;21.20;96.70;;;;;;5020054;28;20076;-75
2021/06/25 04:10:13;;;;;;;4.78;0.90;;;21.20;96.70;;;;;;5021402;28;20044;-76
2021/06/25 04:12:43;;;;;;;4.45;0.98;;;21.20;96.70;;;;;;5021212;28;20080;-75
2021/06/25 04:15:13;;;;;;;2.63;0.93;;;21.00;96.70;;;;;;5030071;28;20504;-75
2021/06/25 04:17:42;;;;;;;3.55;0.80;;;21.10;96.70;;;;;;5024555;28;20041;-75
2021/06/25 04:20:15;;;;;;;6.40;1.17;;;21.20;96.70;;;;;;5023882;28;20116;-74
2021/06/25 04:22:45;;;;;;;3.55;0.88;;;21.20;96.70;;;;;;5022116;28;20617;-74
2021/06/25 04:25:16;;;;;;;1.98;0.90;;;21.20;96.70;;;;;;5024030;28;20042;-74
2021/06/25 04:27:46;;;;;;;2.15;0.80;;;21.40;96.70;;;;;;5024345;28;20446;-74
2021/06/25 04:30:18;;;;;;;3.15;1.00;;;21.40;96.70;;;;;;5019660;28;20041;-74
2021/06/25 04:32:48;;;;;;;4.63;1.20;;;21.40;96.70;;;;;;5019985;28;20050;-74
2021/06/25 04:35:19;;;;;;;2.38;1.13;;;21.50;96.70;;;;;;5015175;28;20153;-74
2021/06/25 04:37:48;;;;;;;4.10;1.17;;;21.40;96.70;;;;;;5017665;28;20511;-74
2021/06/25 04:40:18;;;;;;;5.63;1.48;;;21.30;96.70;;;;;;5019136;28;20107;-74
2021/06/25 04:42:48;;;;;;;11.75;1.98;;;21.20;96.70;;;;;;5024857;28;20053;-74
2021/06/25 04:45:18;;;;;;;3.75;1.10;;;21.30;96.70;;;;;;5019622;28;20715;-74
2021/06/25 04:47:48;;;;;;;5.07;1.40;;;21.30;96.70;;;;;;5017144;28;20042;-74
2021/06/25 04:50:19;;;;;;;2.97;1.17;;;21.30;96.70;;;;;;5020671;28;20056;-74
2021/06/25 04:52:48;;;;;;;6.80;1.33;;;21.40;96.70;;;;;;5028392;28;20127;-74
2021/06/25 04:55:18;;;;;;;4.30;1.00;;;21.40;96.70;;;;;;5022040;28;20503;-74
2021/06/25 04:57:52;;;;;;;7.72;1.80;;;21.50;96.70;;;;;;5017990;28;20049;-74
2021/06/25 05:00:24;;;;;;;2.67;1.30;;;21.40;96.70;;;;;;5022776;28;20594;-74
2021/06/25 05:02:54;;;;;;;4.13;1.20;;;21.60;96.70;;;;;;5026220;28;20574;-74
2021/06/25 05:05:25;;;;;;;6.72;1.38;;;21.70;96.70;;;;;;5023100;28;20045;-74
2021/06/25 05:07:54;;;;;;;5.57;1.50;;;21.60;96.70;;;;;;5021444;28;20049;-75
2021/06/25 05:10:24;;;;;;;3.63;1.13;;;21.50;96.70;;;;;;5019880;28;20041;-75
2021/06/25 05:12:54;;;;;;;3.85;1.20;;;21.50;96.70;;;;;;5025195;28;20148;-75
2021/06/25 05:15:24;;;;;;;4.30;1.40;;;21.60;96.70;;;;;;5020849;28;20029;-74
2021/06/25 05:17:54;;;;;;;4.97;1.25;;;21.70;96.70;;;;;;5007039;28;20045;-74
2021/06/25 05:20:47;;;;;;;6.97;1.75;;;21.80;96.70;;;;;;5020223;28;20038;-74
2021/06/25 05:23:17;;;;;;;4.70;1.38;;;21.70;96.70;;;;;;5025122;28;20040;-75
2021/06/25 05:25:46;;;;;;;3.60;1.10;;;21.60;96.70;;;;;;5025907;28;20490;-75
2021/06/25 05:28:14;;;;;;;7.88;1.30;;;21.60;96.70;;;;;;5020865;28;20046;-75
2021/06/25 05:30:42;;;;;;;4.47;1.40;;;21.90;96.70;;;;;;5018644;28;20045;-75
2021/06/25 05:33:10;;;;;;;7.13;1.70;;;21.90;96.70;;;;;;5021105;28;20041;-75
2021/06/25 05:35:39;;;;;;;5.40;1.55;;;21.90;96.70;;;;;;5015749;28;20133;-75
2021/06/25 05:38:13;;;;;;;3.90;1.23;;;21.90;96.70;;;;;;5022527;28;20103;-75
2021/06/25 05:40:42;;;;;;;3.63;1.65;;;21.90;96.70;;;;;;5022167;28;20052;-75
2021/06/25 05:43:11;;;;;;;7.80;1.77;;;22.00;96.70;;;;;;5021394;28;20055;-75
2021/06/25 05:45:40;;;;;;;4.43;1.50;;;21.90;96.70;;;;;;5013123;28;20042;-75
2021/06/25 05:48:09;;;;;;;3.95;1.30;;;21.70;96.70;;;;;;5026646;28;20121;-75
2021/06/25 05:50:37;;;;;;;12.25;1.70;;;21.70;96.70;;;;;;5021633;28;20123;-76
2021/06/25 05:53:06;;;;;;;4.78;1.55;;;21.80;96.70;;;;;;5017681;28;20406;-75
2021/06/25 05:55:36;;;;;;;4.75;1.27;;;21.90;96.70;;;;;;5015504;28;20043;-75
2021/06/25 05:58:04;;;;;;;5.75;1.50;;;22.10;96.70;;;;;;5019144;28;20077;-76
2021/06/25 06:00:32;;;;;;;3.95;1.17;;;22.20;96.70;;;;;;5020550;28;20068;-76
2021/06/25 06:03:01;;;;;;;4.65;1.08;;;22.10;96.70;;;;;;5021553;28;20037;-76
2021/06/25 06:05:29;;;;;;;6.45;1.33;;;22.20;96.70;;;;;;5009736;28;20128;-77
2021/06/25 06:07:57;;;;;;;4.28;1.17;;;22.30;96.70;;;;;;5027802;28;20464;-77
2021/06/25 06:10:25;;;;;;;4.30;1.38;;;22.40;96.70;;;;;;5017308;28;20404;-77
2021/06/25 06:12:55;;;;;;;4.53;1.08;;;22.60;96.70;;;;;;5019727;28;20041;-76
2021/06/25 06:15:24;;;;;;;4.68;1.00;;;22.60;96.70;;;;;;5024911;28;20487;-75
2021/06/25 06:17:52;;;;;;;5.55;1.23;;;22.60;96.70;;;;;;5019885;28;20056;-75
2021/06/25 06:20:23;;;;;;;6.35;1.08;;;22.60;96.70;;;;;;5022125;28;20570;-74
2021/06/25 06:31:19;;;;;;;4.10;1.25;;;23.00;96.70;;;;;;5015077;28;20589;-75
2021/06/25 06:33:56;;;;;;;2.67;0.93;;;23.10;96.70;;;;;;5024714;28;20049;-75
2021/06/25 06:36:40;;;;;;;2.25;1.20;;;23.00;96.70;;;;;;5020035;28;20042;-75
2021/06/25 06:39:08;;;;;;;3.00;1.33;;;22.90;96.70;;;;;;5021953;28;20051;-75
2021/06/25 06:41:37;;;;;;;4.32;1.20;;;23.00;96.70;;;;;;5018903;28;20042;-75
2021/06/25 06:44:07;;;;;;;3.42;1.17;;;23.00;96.70;;;;;;5015037;28;20041;-76
2021/06/25 06:46:35;;;;;;;3.33;1.00;;;23.10;96.70;;;;;;5021210;28;20036;-76
2021/06/25 06:49:05;;;;;;;4.32;1.27;;;23.20;96.70;;;;;;5016664;28;20037;-76
2021/06/25 06:51:33;;;;;;;3.85;0.98;;;23.20;96.70;;;;;;5022676;28;20041;-75
2021/06/25 06:54:02;;;;;;;5.20;0.80;;;23.40;96.70;;;;;;5020119;28;20147;-75
2021/06/25 06:56:30;;;;;;;5.05;1.25;;;23.50;96.70;;;;;;5021286;28;20384;-75
2021/06/25 06:59:00;;;;;;;4.60;1.20;;;23.60;96.70;;;;;;5020532;28;20041;-76
2021/06/25 07:01:31;;;;;;;5.40;1.23;;;23.70;96.70;;;;;;5018291;28;20049;-75
2021/06/25 07:04:19;;;;;;;3.78;0.80;;;23.80;96.70;;;;;;5021050;28;20612;-75
2021/06/25 07:06:47;;;;;;;6.40;1.33;;;23.70;96.70;;;;;;5018612;28;20325;-75
2021/06/25 07:09:15;;;;;;;3.35;1.20;;;23.70;96.70;;;;;;5025032;28;20034;-75
2021/06/25 07:11:43;;;;;;;5.13;1.00;;;23.60;96.70;;;;;;5027025;28;20640;-74
2021/06/25 07:14:11;;;;;;;4.53;1.10;;;23.60;96.70;;;;;;5020960;28;20582;-74
2021/06/25 07:16:41;;;;;;;3.70;0.75;;;23.60;96.70;;;;;;5021870;28;20044;-74
2021/06/25 07:19:09;;;;;;;6.97;0.98;;;23.70;96.70;;;;;;5021010;28;20521;-75
2021/06/25 07:21:37;;;;;;;4.70;0.90;;;23.80;96.70;;;;;;5022404;28;20486;-75
2021/06/25 07:24:06;;;;;;;4.90;1.02;;;24.00;96.70;;;;;;5018882;28;20511;-75
2021/06/25 07:26:34;;;;;;;4.47;0.85;;;24.00;96.70;;;;;;5019470;28;20492;-75
2021/06/25 07:29:02;;;;;;;4.32;0.75;;;24.10;96.70;;;;;;5017459;28;20096;-75
2021/06/25 07:31:31;;;;;;;3.53;1.00;;;24.30;96.70;;;;;;5020748;28;20133;-75
2021/06/25 07:34:01;;;;;;;3.78;0.77;;;24.30;96.70;;;;;;5021594;28;20075;-75
2021/06/25 07:36:29;;;;;;;4.22;0.90;;;24.30;96.70;;;;;;5020034;28;20384;-75
2021/06/25 07:38:57;;;;;;;5.05;1.13;;;24.40;96.70;;;;;;5021651;28;20106;-74
2021/06/25 07:41:25;;;;;;;3.60;0.93;;;24.40;96.70;;;;;;5003592;28;20114;-75
2021/06/25 07:43:53;;;;;;;7.20;1.20;;;24.40;96.70;;;;;;5031906;28;20044;-75
2021/06/25 07:46:21;;;;;;;4.05;1.00;;;24.40;96.70;;;;;;5018375;28;20514;-75
2021/06/25 07:48:49;;;;;;;5.00;1.30;;;24.40;96.70;;;;;;5023755;28;20052;-75
2021/06/25 07:51:19;;;;;;;3.80;0.70;;;24.30;96.70;;;;;;5023170;28;20041;-75
2021/06/25 07:53:47;;;;;;;4.28;0.80;;;24.50;96.70;;;;;;5023547;28;20123;-75
2021/06/25 07:56:15;;;;;;;5.22;0.73;;;24.60;96.70;;;;;;5021066;28;20064;-75
2021/06/25 07:58:43;;;;;;;5.25;0.80;;;24.70;96.70;;;;;;5020255;28;20634;-75
2021/06/25 08:01:11;;;;;;;7.35;1.10;;;24.80;96.70;;;;;;5019389;28;20053;-76
2021/06/25 08:03:40;;;;;;;4.57;1.13;;;24.90;96.70;;;;;;5029123;28;20048;-75
2021/06/25 08:06:10;;;;;;;9.20;1.55;;;25.00;96.70;;;;;;5024802;28;20091;-75
2021/06/25 08:08:39;;;;;;;4.55;0.85;;;25.00;96.70;;;;;;5030263;28;20515;-75
2021/06/25 08:11:08;;;;;;;3.88;0.90;;;25.00;96.70;;;;;;5019726;28;20041;-74
2021/06/25 08:13:36;;;;;;;5.75;1.13;;;25.00;96.70;;;;;;5029424;28;20132;-75
2021/06/25 08:16:05;;;;;;;5.15;1.25;;;25.10;96.70;;;;;;5024422;28;20127;-75
2021/06/25 08:18:34;;;;;;;4.10;0.90;;;25.20;96.70;;;;;;5020619;28;20030;-75
2021/06/25 08:21:02;;;;;;;5.35;1.00;;;25.30;96.70;;;;;;5024850;28;20064;-75
2021/06/25 08:23:34;;;;;;;5.72;1.10;;;25.40;96.70;;;;;;5023376;28;20037;-75
2021/06/25 08:26:04;;;;;;;6.55;1.33;;;25.30;96.70;;;;;;5016903;28;20124;-75
2021/06/25 08:28:33;;;;;;;4.05;0.98;;;25.30;96.70;;;;;;5019151;28;20053;-75
2021/06/25 08:31:01;;;;;;;5.07;0.90;;;25.30;96.70;;;;;;5014850;28;20499;-74
2021/06/25 08:33:30;;;;;;;4.60;0.85;;;25.40;96.70;;;;;;5023919;28;20044;-73
2021/06/25 08:35:58;;;;;;;7.05;1.00;;;25.40;96.70;;;;;;5025931;28;20053;-75
2021/06/25 08:38:27;;;;;;;4.65;0.90;;;25.60;96.70;;;;;;5023843;28;20053;-75
2021/06/25 08:40:57;;;;;;;2.65;0.70;;;25.60;96.70;;;;;;5010781;28;20041;-75
2021/06/25 08:43:27;;;;;;;3.17;0.60;;;25.70;96.70;;;;;;5022096;28;20029;-74
2021/06/25 08:45:58;;;;;;;2.78;0.77;;;25.80;96.60;;;;;;5029465;28;20042;-75
2021/06/25 08:48:26;;;;;;;5.15;1.08;;;25.90;96.40;;;;;;5021562;28;20065;-74
2021/06/25 08:50:58;;;;;;;5.20;1.13;;;26.00;96.60;;;;;;5021684;28;20045;-76
2021/06/25 08:53:26;;;;;;;2.65;0.70;;;26.10;95.40;;;;;;5009649;28;20044;-75
2021/06/25 08:55:54;;;;;;;4.30;0.60;;;26.00;96.40;;;;;;5023124;28;20055;-75
2021/06/25 08:58:24;;;;;;;4.00;0.90;;;26.10;96.50;;;;;;5020912;28;20110;-76
2021/06/25 09:00:54;;;;;;;2.80;0.60;;;26.10;96.20;;;;;;5023947;28;20060;-76
2021/06/25 09:03:24;;;;;;;5.88;1.00;;;26.30;96.70;;;;;;5017079;28;20034;-76
2021/06/25 09:06:05;;;;;;;3.55;0.75;;;26.40;95.30;;;;;;5025270;28;20053;-76
2021/06/25 09:08:34;;;;;;;3.67;0.75;;;26.40;95.20;;;;;;5024864;28;20454;-76
2021/06/25 09:11:18;;;;;;;3.50;0.98;;;26.40;94.90;;;;;;5022995;28;20129;-74
2021/06/25 09:13:46;;;;;;;4.13;0.80;;;26.40;93.20;;;;;;5018785;28;20064;-74
2021/06/25 09:16:24;;;;;;;3.20;0.85;;;26.40;93.50;;;;;;5010678;28;20049;-74
2021/06/25 09:18:57;;;;;;;5.05;0.90;;;26.40;94.20;;;;;;5019209;28;20075;-74
2021/06/25 09:21:27;;;;;;;1.42;0.47;;;26.30;94.40;;;;;;5022161;28;20124;-74
2021/06/25 09:23:55;;;;;;;3.47;1.00;;;26.30;94.20;;;;;;5016800;28;20231;-74
2021/06/25 09:26:31;;;;;;;3.63;0.70;;;26.30;93.40;;;;;;5022004;28;20056;-75
2021/06/25 09:29:13;;;;;;;6.97;0.80;;;26.50;93.40;;;;;;5004904;28;20057;-75
2021/06/25 09:31:54;;;;;;;2.03;0.55;;;26.70;92.80;;;;;;5026844;28;20049;-74
2021/06/25 09:34:35;;;;;;;3.85;0.90;;;26.70;92.20;;;;;;5022272;28;20041;-73
2021/06/25 09:37:05;;;;;;;4.65;0.90;;;26.80;91.70;;;;;;5013633;28;20477;-74
2021/06/25 09:39:34;;;;;;;3.20;0.60;;;26.90;92.00;;;;;;5017252;28;20034;-74
2021/06/25 09:42:02;;;;;;;4.30;0.70;;;26.80;91.90;;;;;;5017487;28;20033;-75
2021/06/25 09:44:31;;;;;;;5.80;0.80;;;26.70;91.90;;;;;;5025812;28;20025;-75
2021/06/25 09:47:00;;;;;;;2.75;0.60;;;26.70;92.10;;;;;;5024184;28;20049;-75
2021/06/25 09:49:33;;;;;;;2.78;0.50;;;26.90;91.50;;;;;;5019833;28;20498;-74
2021/06/25 09:52:03;;;;;;;4.07;1.10;;;27.10;91.70;;;;;;5018128;28;20045;-74
2021/06/25 09:54:31;;;;;;;3.47;0.68;;;27.30;90.50;;;;;;5021688;28;20489;-74
2021/06/25 09:57:06;;;;;;;4.25;0.57;;;27.30;89.90;;;;;;5026644;28;20878;-75
2021/06/25 10:02:30;;;;;;;4.72;1.00;;;27.10;89.90;;;;;;5021893;28;20576;-74
2021/06/25 10:05:05;;;;;;;3.15;0.90;;;27.20;90.20;;;;;;5025151;28;20045;-75
2021/06/25 10:07:34;;;;;;;3.42;0.80;;;27.30;89.60;;;;;;5015482;28;20412;-75
2021/06/25 10:10:07;;;;;;;3.95;0.98;;;27.40;89.80;;;;;;5007766;28;20056;-75
2021/06/25 10:12:39;;;;;;;3.58;0.85;;;27.50;90.00;;;;;;5026991;28;20033;-75
2021/06/25 10:15:09;;;;;;;5.28;0.68;;;27.50;89.80;;;;;;5020447;28;20041;-75
2021/06/25 10:17:39;;;;;;;3.08;0.60;;;27.50;89.80;;;;;;5020450;28;20092;-75
2021/06/25 10:20:10;;;;;;;4.28;0.70;;;27.60;89.20;;;;;;5028493;28;20045;-75
2021/06/25 10:22:42;;;;;;;3.42;0.60;;;27.60;89.30;;;;;;5024638;28;20078;-75
2021/06/25 10:25:13;;;;;;;6.70;0.80;;;27.70;89.20;;;;;;5021579;28;20061;-74
2021/06/25 10:27:45;;;;;;;4.25;0.70;;;27.90;88.40;;;;;;5020582;28;20050;-74
2021/06/25 10:30:14;;;;;;;4.55;0.85;;;28.00;88.00;;;;;;5020312;28;20042;-74
2021/06/25 10:32:44;;;;;;;2.97;0.50;;;28.10;88.20;;;;;;5008462;28;20045;-75
2021/06/25 10:35:13;;;;;;;3.38;0.60;;;28.10;87.60;;;;;;5022625;28;20458;-75
2021/06/25 10:37:46;;;;;;;3.45;0.80;;;28.10;87.30;;;;;;5028431;28;20069;-74
2021/06/25 10:40:24;;;;;;;2.08;0.45;;;28.00;86.90;;;;;;5006105;28;20499;-74
2021/06/25 10:42:53;;;;;;;3.20;0.45;;;28.00;87.00;;;;;;5022336;28;20106;-74
2021/06/25 10:45:37;;;;;;;1.83;0.50;;;28.30;86.20;;;;;;5013549;28;20042;-74
2021/06/25 10:48:08;;;;;;;2.78;0.55;;;28.40;84.40;;;;;;5024817;28;20057;-74
2021/06/25 10:50:37;;;;;;;2.75;0.40;;;28.50;84.10;;;;;;5002767;28;20498;-75
2021/06/25 10:53:12;;;;;;;3.78;0.50;;;28.50;84.00;;;;;;5015676;28;20038;-75
2021/06/25 10:55:45;;;;;;;2.42;0.50;;;28.60;84.00;;;;;;5002711;28;20046;-74
2021/06/25 10:58:24;;;;;;;1.15;0.30;;;28.70;83.40;;;;;;5019465;28;20128;-74
2021/06/25 11:00:57;;;;;;;2.40;0.50;;;28.70;82.20;;;;;;5019251;28;20743;-74
2021/06/25 11:03:37;;;;;;;1.70;0.30;;;28.70;82.20;;;;;;5018153;28;20049;-75
2021/06/25 11:06:09;;;;;;;2.55;0.50;;;28.90;81.40;;;;;;5024516;28;20407;-75
2021/06/25 11:09:01;;;;;;;1.48;0.60;;;28.90;80.30;;;;;;5024998;28;20053;-74
2021/06/25 11:11:29;;;;;;;0.75;0.30;;;28.80;80.30;;;;;;5025296;28;20786;-75
2021/06/25 11:13:58;;;;;;;1.73;0.50;;;28.90;80.00;;;;;;5024731;28;20038;-75
2021/06/25 11:16:27;;;;;;;3.42;0.60;;;28.90;80.90;;;;;;5019325;28;20049;-75
2021/06/25 11:18:59;;;;;;;2.10;0.40;;;29.00;80.80;;;;;;5023699;28;20037;-74
2021/06/25 11:21:42;;;;;;;1.55;0.70;;;29.00;80.70;;;;;;5029122;28;20045;-74
2021/06/25 11:24:33;;;;;;;1.88;0.57;;;29.20;80.90;;;;;;5017921;28;20056;-77
2021/06/25 11:27:02;;;;;;;1.95;0.40;;;29.30;80.10;;;;;;5020868;28;20087;-74
2021/06/25 11:29:43;;;;;;;2.83;0.70;;;29.30;81.00;;;;;;5025362;28;21382;-75
2021/06/25 11:32:26;;;;;;;1.67;0.50;;;29.30;80.20;;;;;;5023548;28;20425;-75
2021/06/25 11:34:56;;;;;;;2.70;0.30;;;29.40;80.30;;;;;;5023708;28;20053;-75
2021/06/25 11:37:58;;;;;;;3.25;0.50;;;29.50;78.90;;;;;;5020435;28;20507;-75
2021/06/25 11:40:46;;;;;;;3.10;0.20;;;29.50;78.80;;;;;;5025243;28;20125;-75
2021/06/25 11:43:16;;;;;;;0.80;0.30;;;29.70;78.10;;;;;;5022614;28;20128;-75
2021/06/25 11:45:49;;;;;;;2.25;0.30;;;29.60;77.70;;;;;;5026828;28;20580;-74
2021/06/25 11:48:22;;;;;;;1.38;0.30;;;29.50;77.80;;;;;;5019355;28;20053;-74
2021/06/25 11:50:57;;;;;;;3.45;0.40;;;29.60;77.60;;;;;;5022281;28;20128;-74
2021/06/25 11:53:27;;;;;;;1.92;0.35;;;30.00;78.10;;;;;;5025605;28;20041;-74
2021/06/25 11:55:55;;;;;;;1.17;0.25;;;29.90;77.20;;;;;;5029920;28;20068;-74
2021/06/25 11:58:25;;;;;;;2.63;0.30;;;30.00;77.40;;;;;;5023927;28;20041;-74
2021/06/25 12:01:01;;;;;;;2.97;0.40;;;29.90;76.90;;;;;;5018278;28;20057;-73
2021/06/25 12:03:42;;;;;;;2.70;0.45;;;30.00;77.00;;;;;;5028717;28;20095;-73
2021/06/25 12:06:12;;;;;;;2.40;0.28;;;30.00;76.20;;;;;;5025581;28;20183;-74
2021/06/25 12:08:59;;;;;;;0.55;0.20;;;29.90;75.70;;;;;;5021728;28;20054;-74
2021/06/25 12:11:30;;;;;;;1.92;0.38;;;30.00;75.90;;;;;;5018915;28;20072;-74
2021/06/25 12:14:04;;;;;;;1.48;0.52;;;30.00;74.30;;;;;;5025759;28;20443;-73
2021/06/25 12:16:36;;;;;;;3.42;0.43;;;30.20;72.70;;;;;;5021593;28;20049;-73
2021/06/25 12:19:08;;;;;;;2.00;0.30;;;30.20;73.10;;;;;;5023332;28;20057;-74
2021/06/25 12:21:39;;;;;;;1.85;0.20;;;30.20;74.30;;;;;;5027223;28;20052;-74
2021/06/25 12:24:07;;;;;;;0.93;0.30;;;30.20;74.80;;;;;;5019313;28;20041;-74
2021/06/25 12:26:35;;;;;;;3.22;0.40;;;30.40;74.90;;;;;;5010330;28;20049;-74
2021/06/25 12:29:04;;;;;;;1.08;0.20;;;30.30;74.70;;;;;;5017210;28;20450;-74
2021/06/25 12:31:34;;;;;;;1.95;0.30;;;30.40;74.80;;;;;;5023228;28;20029;-74
2021/06/25 12:34:06;;;;;;;1.67;0.40;;;30.30;74.20;;;;;;5021207;28;20168;-74
2021/06/25 12:36:35;;;;;;;0.57;0.20;;;30.40;74.20;;;;;;5017128;28;20054;-74
2021/06/25 12:39:07;;;;;;;2.03;0.50;;;30.30;74.40;;;;;;5025502;28;20095;-75
2021/06/25 12:41:41;;;;;;;1.38;0.40;;;30.50;74.80;;;;;;5020917;28;20455;-74
2021/06/25 12:44:11;;;;;;;2.88;0.35;;;30.40;74.60;;;;;;5022977;28;20614;-74
2021/06/25 12:46:40;;;;;;;1.17;0.40;;;30.50;74.70;;;;;;5024548;28;20053;-74
2021/06/25 12:49:09;;;;;;;0.52;0.20;;;30.50;74.40;;;;;;5028708;28;20062;-75
2021/06/25 12:51:38;;;;;;;1.98;0.47;;;30.50;74.10;;;;;;5026835;28;20074;-74
2021/06/25 12:54:08;;;;;;;2.25;0.45;;;30.40;74.60;;;;;;5015971;28;20049;-75
2021/06/25 12:56:44;;;;;;;2.20;0.38;;;30.60;75.10;;;;;;5017536;28;20052;-74
2021/06/25 12:59:19;;;;;;;1.02;0.30;;;30.60;74.40;;;;;;5019725;28;20051;-75
2021/06/25 13:01:52;;;;;;;2.25;0.43;;;30.70;74.50;;;;;;5001379;28;20057;-75
2021/06/25 13:04:22;;;;;;;1.38;0.57;;;30.70;74.10;;;;;;5018869;28;20140;-75
2021/06/25 13:06:52;;;;;;;0.35;0.25;;;30.90;73.90;;;;;;5021165;28;20533;-75
2021/06/25 13:09:24;;;;;;;2.72;0.40;;;31.20;73.30;;;;;;5016892;28;20046;-75
2021/06/25 13:12:07;;;;;;;2.17;0.20;;;31.20;72.80;;;;;;5022395;28;20125;-74
2021/06/25 13:14:45;;;;;;;1.58;0.28;;;31.20;71.70;;;;;;5022251;28;20048;-75
2021/06/25 13:17:20;;;;;;;1.73;0.45;;;31.10;71.90;;;;;;5024512;28;20068;-75